AF1024 / F-GKXY 7700 Squawk Report (14th of November, 2018)

Aircraft A320 Reg No. F-GKXY Age 9 years old
Model A320 Jet engines 2 First flight 12-11-09
Registered 30-11-17 Rollout 11-09 Delivered 25-11-09
Construction No. 4105 Line No. N/A Series 214
ADSHEX 392AF8 Airline name Joon Owner Whitney Ireland Leasing Ltd
Airfield based Paris-Charles de Gaulle~Val-d'Oise~F First tracked 2011-04-01 19:57:01

Flight history for F-GKXY

Time Lat Lon Altitude Heading Speed Vertical Rate
2018-11-14 10:26:58 GMT 44.842747 -0.695287 25 226 144 -704
2018-11-14 10:26:54 GMT 44.844635 -0.692531 75 226 144 -896
2018-11-14 10:26:42 GMT 44.850037 -0.684749 225 226 142 -768
2018-11-14 10:26:36 GMT 44.852894 -0.680683 325 226 141 -896
2018-11-14 10:26:26 GMT 44.857681 -0.673828 450 226 141 -768
2018-11-14 10:26:16 GMT 44.862076 -0.667550 575 225 140 -640
2018-11-14 10:26:05 GMT 44.867046 -0.660452 700 225 137 -640
2018-11-14 10:25:55 GMT 44.871330 -0.654356 800 226 137 -832
2018-11-14 10:25:46 GMT 44.876217 -0.647389 950 226 142 -960
2018-11-14 10:25:35 GMT 44.880524 -0.641196 1,075 226 149 -576
2018-11-14 10:25:28 GMT 44.883865 -0.636422 1,175 227 154 -768
2018-11-14 10:25:25 GMT 44.885620 -0.633925 1,225 227 157 -704
2018-11-14 10:25:15 GMT 44.891209 -0.625819 1,350 225 165 -896
2018-11-14 10:25:05 GMT 44.896469 -0.618316 1,500 226 164 -896
2018-11-14 10:24:54 GMT 44.902176 -0.610134 1,675 226 164 -832
2018-11-14 10:24:45 GMT 44.907223 -0.602908 1,800 226 165 -896
2018-11-14 10:24:34 GMT 44.913025 -0.594570 1,950 226 168 -896
2018-11-14 10:24:24 GMT 44.918243 -0.587049 2,125 226 169 -1024
2018-11-14 10:24:15 GMT 44.923141 -0.580117 2,275 226 170 -960
2018-11-14 10:24:05 GMT 44.928963 -0.571825 2,475 226 173 -832
2018-11-14 10:23:53 GMT 44.935822 -0.561872 2,575 226 175 -768
2018-11-14 10:23:43 GMT 44.941113 -0.554274 2,700 226 179 -192
2018-11-14 10:23:33 GMT 44.947266 -0.545524 2,725 226 183 -128
2018-11-14 10:23:23 GMT 44.953400 -0.536923 2,750 225 185 -64
2018-11-14 10:23:12 GMT 44.960152 -0.528148 2,725 220 190 128
2018-11-14 10:23:02 GMT 44.967552 -0.521449 2,725 202 189 0
2018-11-14 10:22:52 GMT 44.975838 -0.518903 2,725 181 198 0
2018-11-14 10:22:41 GMT 44.985489 -0.518842 2,725 181 198 0
2018-11-14 10:22:28 GMT 44.998230 -0.518702 2,700 181 210 0
2018-11-14 10:22:21 GMT 45.004578 -0.518646 2,725 181 214 -128
2018-11-14 10:22:11 GMT 45.014786 -0.518646 2,725 179 214 -64
2018-11-14 10:22:01 GMT 45.025269 -0.519366 2,725 171 214 0
2018-11-14 10:21:51 GMT 45.034496 -0.523458 2,725 149 216 0
2018-11-14 10:21:40 GMT 45.042736 -0.533306 2,725 124 222 0
2018-11-14 10:21:30 GMT 45.047607 -0.547158 2,725 103 230 64
2018-11-14 10:21:20 GMT 45.048695 -0.562781 2,725 85 242 64
2018-11-14 10:21:08 GMT 45.047562 -0.582145 2,725 85 254 0
2018-11-14 10:20:56 GMT 45.046551 -0.600363 2,725 85 259 0
2018-11-14 10:20:50 GMT 45.046005 -0.610395 2,725 85 259 64
2018-11-14 10:20:39 GMT 45.045063 -0.629838 2,700 86 262 0
2018-11-14 10:20:35 GMT 45.044815 -0.635507 2,700 86 263 0
2018-11-14 10:20:30 GMT 45.044403 -0.645316 2,725 86 267 -128
2018-11-14 10:20:24 GMT 45.043991 -0.654825 2,775 86 266 -256
2018-11-14 10:20:20 GMT 45.043617 -0.663132 2,775 86 264 -512
2018-11-14 10:20:11 GMT 45.042919 -0.677334 2,875 85 258 -1088
2018-11-14 10:20:08 GMT 45.042664 -0.682068 2,925 85 257 -1344
2018-11-14 10:20:02 GMT 45.042038 -0.692943 3,075 85 257 -1536
2018-11-14 10:19:56 GMT 45.041519 -0.702013 3,500 86 262 -1408
2018-11-14 10:19:48 GMT 45.040733 -0.716925 3,450 85 259 -960
2018-11-14 10:19:43 GMT 45.040329 -0.724248 3,525 85 259 -1024
2018-11-14 10:19:36 GMT 45.039780 -0.735430 3,650 86 262 -1472
2018-11-14 10:19:31 GMT 45.039413 -0.743604 3,750 86 263 -1472
2018-11-14 10:19:25 GMT 45.038910 -0.754918 3,925 86 264 -1472
2018-11-14 10:19:22 GMT 45.038589 -0.761588 4,000 86 264 -1408
2018-11-14 10:19:19 GMT 45.038406 -0.765827 4,075 86 264 -1344
2018-11-14 10:19:12 GMT 45.037754 -0.777886 4,225 85 266 -1408
2018-11-14 10:19:09 GMT 45.037399 -0.783888 4,325 82 268 -1728
2018-11-14 10:19:04 GMT 45.036545 -0.793159 4,475 80 267 -1920
2018-11-14 10:18:57 GMT 45.035065 -0.803244 4,650 74 268 -1792
2018-11-14 10:18:53 GMT 45.033657 -0.810175 4,775 70 270 -1408
2018-11-14 10:18:50 GMT 45.032639 -0.814492 4,825 70 270 -1472
2018-11-14 10:18:47 GMT 45.031376 -0.819486 5,425 71 273 -1536
2018-11-14 10:18:42 GMT 45.029373 -0.827525 5,025 70 271 -1408
2018-11-14 10:18:39 GMT 45.028072 -0.832884 5,100 70 271 -1408
2018-11-14 10:18:36 GMT 45.026917 -0.837642 5,175 71 272 -1472
2018-11-14 10:18:32 GMT 45.025043 -0.845277 5,275 71 273 -1472
2018-11-14 10:18:27 GMT 45.022614 -0.855299 5,425 71 273 -1536
2018-11-14 10:18:22 GMT 45.020950 -0.862226 5,525 71 273 -1472
2018-11-14 10:18:16 GMT 45.018387 -0.872676 5,675 70 276 -1344
2018-11-14 10:18:11 GMT 45.016617 -0.879887 5,775 70 276 -1280
2018-11-14 10:18:06 GMT 45.013966 -0.890428 5,900 70 278 -1344
2018-11-14 10:18:01 GMT 45.011780 -0.899204 6,000 70 278 -1408
2018-11-14 10:17:55 GMT 45.009476 -0.908399 6,150 70 280 -1408
2018-11-14 10:17:50 GMT 45.007496 -0.916220 6,250 70 280 -1408
2018-11-14 10:17:45 GMT 45.004761 -0.927102 6,400 70 281 -1344
2018-11-14 10:17:41 GMT 45.003258 -0.933101 6,475 70 282 -1216
2018-11-14 10:17:37 GMT 45.001144 -0.941620 6,575 70 283 -1216
2018-11-14 10:17:34 GMT 45.000458 -0.944497 6,600 70 284 -1280
2018-11-14 10:17:30 GMT 44.998352 -0.952933 6,700 70 284 -1536
2018-11-14 10:17:26 GMT 44.996796 -0.959211 6,825 70 284 -1664
2018-11-14 10:17:23 GMT 44.995789 -0.963396 6,875 70 284 -1728
2018-11-14 10:17:20 GMT 44.994186 -0.969740 6,975 70 284 -1728
2018-11-14 10:17:16 GMT 44.992554 -0.976309 7,100 70 285 -1792
2018-11-14 10:17:13 GMT 44.990971 -0.982740 7,175 70 285 -1664
2018-11-14 10:17:09 GMT 44.989525 -0.988502 7,300 70 284 -1600
2018-11-14 10:17:05 GMT 44.987850 -0.995134 7,375 70 285 -1408
2018-11-14 10:17:02 GMT 44.986454 -1.000828 7,450 70 286 -1280
2018-11-14 10:16:59 GMT 44.985123 -1.006165 7,525 70 286 -1280
2018-11-14 10:16:55 GMT 44.983521 -1.012752 7,625 71 288 -1280
2018-11-14 10:16:52 GMT 44.982056 -1.018655 7,675 71 288 -1344
2018-11-14 10:16:49 GMT 44.980682 -1.024344 7,750 71 289 -1344
2018-11-14 10:16:42 GMT 44.977478 -1.037685 7,900 71 291 -1472
2018-11-14 10:16:38 GMT 44.975979 -1.043902 8,000 71 292 -1472
2018-11-14 10:16:32 GMT 44.973175 -1.055668 8,175 71 291 -1536
2018-11-14 10:16:28 GMT 44.971836 -1.061453 8,250 71 292 -1600
2018-11-14 10:16:25 GMT 44.970062 -1.069009 8,350 71 292 -1664
2018-11-14 10:16:20 GMT 44.968643 -1.075156 8,450 71 292 -1792
2018-11-14 10:16:17 GMT 44.966995 -1.082153 8,575 71 292 -1920
2018-11-14 10:16:10 GMT 44.963516 -1.097129 8,800 71 291 -1856
2018-11-14 10:16:06 GMT 44.962784 -1.100464 8,875 72 291 -1728
2018-11-14 10:16:00 GMT 44.960106 -1.112031 9,050 72 291 -1536
2018-11-14 10:15:57 GMT 44.958755 -1.117993 9,150 72 292 -1472
2018-11-14 10:15:50 GMT 44.955635 -1.131927 9,325 72 293 -1408
2018-11-14 10:15:43 GMT 44.952759 -1.144932 9,500 72 295 -1536
2018-11-14 10:15:38 GMT 44.951118 -1.152493 9,600 72 295 -1600
2018-11-14 10:15:29 GMT 44.947128 -1.170306 9,875 72 295 -1600
2018-11-14 10:15:24 GMT 44.945526 -1.177434 9,975 72 296 -1472
2018-11-14 10:15:16 GMT 44.941715 -1.194361 10,175 72 298 -1344
2018-11-14 10:15:08 GMT 44.938553 -1.208295 10,300 72 305 -576
2018-11-14 10:15:05 GMT 44.937107 -1.214659 10,325 72 311 -256
2018-11-14 10:14:57 GMT 44.933945 -1.228572 10,375 72 311 -256
2018-11-14 10:14:53 GMT 44.931801 -1.237972 10,400 72 316 -320
2018-11-14 10:14:46 GMT 44.929146 -1.249427 10,475 71 330 -384
2018-11-14 10:14:39 GMT 44.925385 -1.265782 10,475 71 330 -384
2018-11-14 10:14:36 GMT 44.924332 -1.270360 10,500 71 330 -384
2018-11-14 10:14:24 GMT 44.918392 -1.295784 10,575 71 342 -448
2018-11-14 10:14:14 GMT 44.913483 -1.317051 10,675 72 354 -512
2018-11-14 10:14:03 GMT 44.903458 -1.361389 10,900 76 386 0
2018-11-14 10:13:55 GMT 44.903458 -1.361389 10,950 73 372 -448
2018-11-14 10:13:52 GMT 44.902706 -1.364917 10,975 76 386 0
2018-11-14 10:13:42 GMT 44.897820 -1.389101 10,975 80 394 0
2018-11-14 10:13:32 GMT 44.893890 -1.414817 10,975 80 394 0
2018-11-14 10:13:21 GMT 44.890915 -1.441432 10,975 81 394 0
2018-11-14 10:13:18 GMT 44.890137 -1.448923 10,975 81 394 0
2018-11-14 10:13:11 GMT 44.888088 -1.468216 10,975 81 394 0
2018-11-14 10:13:02 GMT 44.885574 -1.492131 10,975 81 394 0
2018-11-14 10:12:50 GMT 44.882408 -1.521472 11,000 81 395 0
2018-11-14 10:12:42 GMT 44.879803 -1.545924 10,975 81 394 0
2018-11-14 10:12:38 GMT 44.879150 -1.551753 11,000 81 394 0
2018-11-14 10:12:28 GMT 44.876541 -1.575868 10,975 81 394 0
2018-11-14 10:12:18 GMT 44.873657 -1.602958 11,000 81 394 0
2018-11-14 10:12:07 GMT 44.870819 -1.629377 11,000 81 394 0
2018-11-14 10:11:57 GMT 44.867931 -1.655921 11,000 81 394 0
2018-11-14 10:11:46 GMT 44.865051 -1.682608 11,000 81 394 0
2018-11-14 10:11:38 GMT 44.862904 -1.702613 10,975 81 394 0
2018-11-14 10:11:35 GMT 44.862064 -1.710250 10,975 81 393 0
2018-11-14 10:11:24 GMT 44.859039 -1.738117 10,975 81 393 0
2018-11-14 10:11:14 GMT 44.856262 -1.763633 10,975 81 392 -128
2018-11-14 10:11:07 GMT 44.854019 -1.784428 11,000 81 389 128
2018-11-14 10:11:04 GMT 44.853333 -1.790771 11,000 81 384 0
2018-11-14 10:10:53 GMT 44.850540 -1.816079 10,975 81 383 0
2018-11-14 10:10:42 GMT 44.847565 -1.843087 10,975 81 384 0
2018-11-14 10:10:31 GMT 44.844589 -1.870292 11,000 81 383 0
2018-11-14 10:10:21 GMT 44.841843 -1.895534 11,000 81 383 0
2018-11-14 10:10:08 GMT 44.838089 -1.929539 11,000 81 383 0
2018-11-14 10:09:51 GMT 44.833694 -1.969430 11,000 81 383 0
2018-11-14 10:09:43 GMT 44.831543 -1.989179 10,975 81 383 0
2018-11-14 10:09:33 GMT 44.828796 -2.013899 10,975 81 384 0
2018-11-14 10:09:22 GMT 44.825775 -2.040907 11,000 81 383 0
2018-11-14 10:09:18 GMT 44.824593 -2.051630 11,000 81 384 0
2018-11-14 10:09:12 GMT 44.823074 -2.065103 10,975 81 384 0
2018-11-14 10:09:06 GMT 44.821426 -2.079632 10,975 81 384 0
2018-11-14 10:09:03 GMT 44.820309 -2.089613 10,975 81 384 0
2018-11-14 10:08:59 GMT 44.819099 -2.100264 11,000 81 384 0
2018-11-14 10:08:55 GMT 44.818306 -2.107365 11,000 81 384 0
2018-11-14 10:08:52 GMT 44.815796 -2.129909 11,000 81 384 0
2018-11-14 10:08:40 GMT 44.814148 -2.144623 10,975 81 384 0
2018-11-14 10:08:34 GMT 44.812454 -2.159991 11,000 81 384 0
2018-11-14 10:08:30 GMT 44.811043 -2.172680 11,000 81 384 0
2018-11-14 10:08:25 GMT 44.809753 -2.183925 11,000 81 384 0
2018-11-14 10:08:18 GMT 44.808018 -2.199275 11,000 81 384 0
2018-11-14 10:08:09 GMT 44.805313 -2.223227 11,000 80 384 0
2018-11-14 10:08:03 GMT 44.803921 -2.235383 11,000 80 384 0
2018-11-14 10:07:53 GMT 44.801037 -2.260571 11,000 80 384 0
2018-11-14 10:07:38 GMT 44.796520 -2.300564 10,975 80 384 0
2018-11-14 10:07:27 GMT 44.793686 -2.325505 11,000 80 384 0
2018-11-14 10:07:17 GMT 44.790840 -2.350404 11,000 80 384 0
2018-11-14 10:07:10 GMT 44.788792 -2.368157 11,000 80 384 0
2018-11-14 10:06:58 GMT 44.785583 -2.396000 10,975 80 383 0
2018-11-14 10:05:50 GMT 44.766220 -2.564131 11,050 80 385 -448
2018-11-14 10:05:37 GMT 44.762302 -2.597731 11,325 80 387 -960
2018-11-14 10:04:53 GMT 44.749420 -2.706822 12,050 80 386 -960
2018-11-14 10:04:43 GMT 44.746803 -2.729433 12,200 80 387 -960
2018-11-14 10:04:20 GMT 44.739853 -2.789023 12,425 80 390 -896
2018-11-14 10:04:15 GMT 44.738422 -2.801246 12,650 80 390 -896
2018-11-14 10:04:07 GMT 44.736099 -2.820544 12,750 80 391 -896
2018-11-14 10:03:55 GMT 44.732651 -2.849880 12,950 80 393 -1024
2018-11-14 10:03:43 GMT 44.729050 -2.880314 13,150 80 394 -960
2018-11-14 10:03:24 GMT 44.723190 -2.929295 13,475 80 394 -896
2018-11-14 10:03:11 GMT 44.719196 -2.962423 13,675 80 394 -960
2018-11-14 10:03:02 GMT 44.716599 -2.983965 13,800 80 396 -896
2018-11-14 10:02:52 GMT 44.713440 -3.010319 13,975 80 397 -960
2018-11-14 10:02:41 GMT 44.710167 -3.037519 14,125 80 398 -960
2018-11-14 10:02:30 GMT 44.706860 -3.065186 14,300 80 400 -960
2018-11-14 10:02:19 GMT 44.703552 -3.093109 14,500 80 402 -960
2018-11-14 10:02:06 GMT 44.699432 -3.127638 14,725 80 403 -960
2018-11-14 10:01:54 GMT 44.695724 -3.157981 14,900 80 401 -960
2018-11-14 10:01:49 GMT 44.694031 -3.171910 15,000 80 401 -1024
2018-11-14 10:01:38 GMT 44.690567 -3.200304 15,200 80 400 -1152
2018-11-14 10:01:24 GMT 44.686157 -3.235997 15,400 80 399 -1088
2018-11-14 10:01:16 GMT 44.683777 -3.255223 15,600 80 392 -768
2018-11-14 10:01:06 GMT 44.680710 -3.280988 15,750 80 384 -1664
2018-11-14 10:00:56 GMT 44.677551 -3.305904 16,000 80 387 -2176
2018-11-14 10:00:45 GMT 44.674320 -3.332609 16,400 80 387 -2880
2018-11-14 10:00:33 GMT 44.670731 -3.362143 16,975 81 384 -2688
2018-11-14 10:00:18 GMT 44.667522 -3.399398 17,425 84 384 -2304
2018-11-14 10:00:10 GMT 44.666687 -3.419897 17,925 87 387 -2240
2018-11-14 10:00:00 GMT 44.665924 -3.443756 18,275 87 388 -2240
2018-11-14 09:59:52 GMT 44.665291 -3.464110 18,575 87 390 -2304
2018-11-14 09:59:41 GMT 44.664356 -3.492045 19,000 87 393 -2304
2018-11-14 09:59:30 GMT 44.663452 -3.519287 19,400 87 396 -2112
2018-11-14 09:59:20 GMT 44.662636 -3.544833 19,750 87 398 -2432
2018-11-14 09:59:09 GMT 44.661518 -3.575179 20,350 85 396 -3776
2018-11-14 09:58:56 GMT 44.659515 -3.606061 21,225 84 387 -4416
2018-11-14 09:58:48 GMT 44.658096 -3.626731 21,800 84 380 -4096
2018-11-14 09:58:37 GMT 44.656258 -3.652887 22,400 84 378 -2048
2018-11-14 09:58:26 GMT 44.654297 -3.680420 22,825 84 379 -2240
2018-11-14 09:58:16 GMT 44.652626 -3.704670 23,200 84 381 -2240
2018-11-14 09:58:03 GMT 44.650314 -3.736071 23,675 84 382 -2240
2018-11-14 09:57:54 GMT 44.648670 -3.758530 24,000 84 385 -2176
2018-11-14 09:57:34 GMT 44.645130 -3.809442 24,800 88 388 -2368
2018-11-14 09:57:23 GMT 44.644714 -3.836975 25,225 92 387 -2432
2018-11-14 09:57:12 GMT 44.646576 -3.864039 25,650 100 388 -2176
2018-11-14 09:57:02 GMT 44.650299 -3.888691 26,000 106 390 -2240
2018-11-14 09:56:52 GMT 44.656036 -3.913356 26,400 112 391 -2304
2018-11-14 09:56:40 GMT 44.664963 -3.940103 26,850 119 393 -2304
2018-11-14 09:56:29 GMT 44.675812 -3.964168 27,300 125 395 -2368
2018-11-14 09:56:20 GMT 44.685772 -3.981673 27,625 132 397 -2112
2018-11-14 09:56:09 GMT 44.700344 -4.002105 28,000 139 402 -1664
2018-11-14 09:55:59 GMT 44.715134 -4.018576 28,275 146 408 -1920
2018-11-14 09:55:47 GMT 44.734512 -4.035064 28,675 152 413 -2048
2018-11-14 09:55:37 GMT 44.751968 -4.046050 29,050 159 419 -2240
2018-11-14 09:55:26 GMT 44.773636 -4.055394 29,550 166 422 -2880
2018-11-14 09:55:15 GMT 44.793030 -4.060051 30,150 174 420 -4224
2018-11-14 09:55:05 GMT 44.813324 -4.061149 30,875 184 417 -3776
2018-11-14 09:54:56 GMT 44.831406 -4.059121 31,425 189 418 -3072
2018-11-14 09:54:43 GMT 44.855759 -4.051928 31,975 197 425 -2048
2018-11-14 09:54:34 GMT 44.872192 -4.043950 32,325 203 430 -2560
2018-11-14 09:54:24 GMT 44.890686 -4.031917 32,750 208 434 -2240
2018-11-14 09:54:12 GMT 44.911083 -4.015235 33,150 212 439 -1536
2018-11-14 09:54:02 GMT 44.928867 -4.000095 33,450 212 440 -1728
2018-11-14 09:53:52 GMT 44.946075 -3.985356 33,700 212 440 -1024
2018-11-14 09:53:42 GMT 44.964890 -3.969269 33,900 212 440 -960
2018-11-14 09:53:39 GMT 44.968964 -3.965737 33,925 212 440 -960
2018-11-14 09:53:29 GMT 44.985149 -3.951863 34,100 212 438 -960
2018-11-14 09:53:20 GMT 45.001118 -3.938197 34,225 212 438 -832
2018-11-14 09:53:09 GMT 45.020370 -3.921596 34,400 212 439 -832
2018-11-14 09:52:58 GMT 45.039150 -3.905305 34,550 212 440 -896
2018-11-14 09:52:48 GMT 45.056469 -3.890299 34,700 212 441 -960
2018-11-14 09:52:38 GMT 45.074478 -3.875100 35,000 210 442 -64
2018-11-14 09:52:27 GMT 45.094223 -3.859015 35,000 210 442 -64
2018-11-14 09:52:16 GMT 45.112888 -3.843808 35,025 210 442 0
2018-11-14 09:52:04 GMT 45.134674 -3.826054 35,025 210 442 0
2018-11-14 09:51:55 GMT 45.168892 -3.798121 35,000 211 444 0
2018-11-14 09:51:45 GMT 45.168892 -3.798121 35,000 211 443 0
2018-11-14 09:51:33 GMT 45.190430 -3.780474 35,000 211 444 64
2018-11-14 09:51:23 GMT 45.208321 -3.765832 34,975 211 444 0
2018-11-14 09:51:13 GMT 45.225407 -3.751831 34,975 211 444 0
2018-11-14 09:51:03 GMT 45.255291 -3.727246 34,975 211 444 0
2018-11-14 09:50:51 GMT 45.263485 -3.720480 34,975 211 444 0
2018-11-14 09:50:42 GMT 45.281967 -3.705273 34,975 211 444 0
2018-11-14 09:50:28 GMT 45.304504 -3.686632 35,000 211 444 -64
2018-11-14 09:50:21 GMT 45.319954 -3.673855 35,025 211 444 -128
2018-11-14 09:50:09 GMT 45.338562 -3.658513 35,000 211 444 0
2018-11-14 09:49:58 GMT 45.357697 -3.642753 35,000 211 444 0
2018-11-14 09:49:48 GMT 45.376144 -3.627516 35,000 211 444 0
2018-11-14 09:49:38 GMT 45.393951 -3.612802 35,000 211 444 0
2018-11-14 09:49:27 GMT 45.413452 -3.596780 35,000 211 444 0
2018-11-14 09:49:16 GMT 45.432220 -3.581281 35,025 211 444 0
2018-11-14 09:49:05 GMT 45.454071 -3.563188 35,000 211 444 0
2018-11-14 09:48:52 GMT 45.474884 -3.545968 35,025 211 445 -64
2018-11-14 09:48:45 GMT 45.488472 -3.534650 35,025 211 444 0
2018-11-14 09:48:33 GMT 45.509422 -3.517233 35,000 211 444 0
2018-11-14 09:48:24 GMT 45.525761 -3.503634 35,000 211 445 0
2018-11-14 09:48:13 GMT 45.545380 -3.487309 35,000 211 443 0
2018-11-14 09:48:02 GMT 45.564400 -3.471542 35,000 211 443 0
2018-11-14 09:47:51 GMT 45.584137 -3.455132 34,975 211 442 0
2018-11-14 09:47:47 GMT 45.592285 -3.448265 34,975 211 442 0
2018-11-14 09:47:40 GMT 45.602478 -3.439819 35,000 211 443 0
2018-11-14 09:47:30 GMT 45.621460 -3.423983 35,000 211 442 0
2018-11-14 09:47:21 GMT 45.640823 -3.407838 35,000 211 442 0
2018-11-14 09:47:10 GMT 45.656200 -3.394981 34,975 211 442 0
2018-11-14 09:46:58 GMT 45.692322 -3.364831 34,975 211 441 0
2018-11-14 09:46:47 GMT 45.697357 -3.360611 34,975 211 441 0
2018-11-14 09:46:36 GMT 45.718048 -3.343327 35,000 211 441 -64
2018-11-14 09:46:28 GMT 45.730728 -3.332743 35,000 211 441 0
2018-11-14 09:46:17 GMT 45.748886 -3.317528 35,000 211 444 0
2018-11-14 09:46:06 GMT 45.771648 -3.298370 35,000 211 449 0
2018-11-14 09:45:56 GMT 45.793903 -3.279625 35,000 211 455 0
2018-11-14 09:45:45 GMT 45.806473 -3.269051 34,975 211 457 -256
2018-11-14 09:45:34 GMT 45.825836 -3.252777 35,000 211 458 0
2018-11-14 09:45:26 GMT 45.841232 -3.239761 35,000 211 458 0
2018-11-14 09:45:22 GMT 45.847916 -3.234268 35,000 211 458 0
2018-11-14 09:45:13 GMT 45.864895 -3.220024 35,000 211 458 0
2018-11-14 09:45:09 GMT 45.872681 -3.213300 35,000 211 457 0
2018-11-14 09:45:05 GMT 45.879093 -3.207939 35,000 211 458 0
2018-11-14 09:45:02 GMT 45.884354 -3.203519 35,000 211 458 0
2018-11-14 09:44:51 GMT 45.903992 -3.186973 35,000 211 457 0
2018-11-14 09:44:44 GMT 45.917404 -3.175598 35,000 211 457 0
2018-11-14 09:44:39 GMT 45.927338 -3.167211 35,000 211 457 0
2018-11-14 09:44:31 GMT 45.941940 -3.154885 34,975 211 457 0
2018-11-14 09:44:24 GMT 45.954987 -3.143832 34,975 211 455 0
2018-11-14 09:44:20 GMT 45.961166 -3.138606 34,975 211 456 0
2018-11-14 09:44:14 GMT 45.973526 -3.128156 34,975 211 454 0
2018-11-14 09:44:11 GMT 45.977737 -3.124580 34,975 211 456 0
2018-11-14 09:44:08 GMT 45.984055 -3.119179 34,975 211 456 0
2018-11-14 09:44:01 GMT 45.995682 -3.109332 34,975 211 454 0
2018-11-14 09:43:57 GMT 46.003757 -3.102470 34,975 211 455 0
2018-11-14 09:43:53 GMT 46.010788 -3.096565 34,975 211 455 0
2018-11-14 09:43:49 GMT 46.018330 -3.090179 35,000 211 455 0
2018-11-14 09:43:43 GMT 46.029373 -3.080794 34,975 211 453 0
2018-11-14 09:43:38 GMT 46.037659 -3.073693 35,000 211 454 0
2018-11-14 09:43:33 GMT 46.046913 -3.065872 35,000 211 454 64
2018-11-14 09:43:27 GMT 46.057060 -3.057220 34,975 211 454 0
2018-11-14 09:43:24 GMT 46.063534 -3.051727 34,975 211 454 0
2018-11-14 09:43:16 GMT 46.078335 -3.039162 34,975 211 454 0
2018-11-14 09:43:13 GMT 46.081966 -3.036072 34,975 211 454 0
2018-11-14 09:43:06 GMT 46.097717 -3.022647 34,975 211 454 0
2018-11-14 09:43:03 GMT 46.100353 -3.020416 34,975 211 454 0
2018-11-14 09:42:57 GMT 46.111572 -3.010872 34,975 211 453 0
2018-11-14 09:42:53 GMT 46.119370 -3.004225 34,975 211 453 0
2018-11-14 09:42:43 GMT 46.137596 -2.988762 34,975 211 453 0
2018-11-14 09:42:38 GMT 46.146164 -2.981415 34,975 211 452 0
2018-11-14 09:42:33 GMT 46.155193 -2.973724 34,975 211 452 0
2018-11-14 09:42:26 GMT 46.167065 -2.963562 34,975 211 452 0
2018-11-14 09:42:23 GMT 46.173115 -2.958344 34,975 211 452 0
2018-11-14 09:42:17 GMT 46.183964 -2.949142 34,975 211 452 0
2018-11-14 09:42:12 GMT 46.193024 -2.941388 34,975 211 452 0
2018-11-14 09:42:07 GMT 46.201355 -2.934220 34,975 211 452 0
2018-11-14 09:42:03 GMT 46.209381 -2.927376 34,975 211 452 0
2018-11-14 09:41:55 GMT 46.222549 -2.916066 34,975 211 451 0
2018-11-14 09:41:52 GMT 46.228638 -2.910908 34,975 211 451 0
2018-11-14 09:41:45 GMT 46.241180 -2.900123 34,975 211 451 0
2018-11-14 09:41:42 GMT 46.246582 -2.895500 34,975 211 451 0
2018-11-14 09:41:39 GMT 46.260498 -2.883576 34,975 211 451 0
2018-11-14 09:41:34 GMT 46.260498 -2.883576 34,975 211 451 0
2018-11-14 09:41:31 GMT 46.266586 -2.878351 34,975 211 451 0
2018-11-14 09:41:27 GMT 46.272720 -2.873126 34,975 211 451 0
2018-11-14 09:41:20 GMT 46.285446 -2.862213 34,975 211 451 0
2018-11-14 09:41:09 GMT 46.317444 -2.834674 34,975 211 450 0
2018-11-14 09:41:02 GMT 46.317444 -2.834674 34,975 211 450 0
2018-11-14 09:40:59 GMT 46.322845 -2.830051 34,975 211 450 0
2018-11-14 09:40:56 GMT 46.328934 -2.824826 35,000 211 451 0
2018-11-14 09:40:52 GMT 46.335861 -2.818817 34,975 211 451 0
2018-11-14 09:40:49 GMT 46.341797 -2.813706 35,000 211 451 0
2018-11-14 09:40:44 GMT 46.349922 -2.806732 35,000 211 451 0
2018-11-14 09:40:41 GMT 46.356171 -2.801313 35,000 211 451 0
2018-11-14 09:40:35 GMT 46.366974 -2.792068 34,975 211 451 0
2018-11-14 09:40:31 GMT 46.374222 -2.785858 35,000 211 451 0
2018-11-14 09:40:27 GMT 46.382507 -2.778786 34,975 211 451 0
2018-11-14 09:40:20 GMT 46.394333 -2.768623 35,000 211 452 -64
2018-11-14 09:40:15 GMT 46.401718 -2.762258 35,000 211 451 0
2018-11-14 09:40:10 GMT 46.413528 -2.752075 35,000 211 452 -64
2018-11-14 09:40:05 GMT 46.419750 -2.746651 35,025 211 454 0
2018-11-14 09:40:01 GMT 46.428177 -2.739414 35,000 211 452 -64
2018-11-14 09:39:55 GMT 46.447266 -2.722868 35,025 211 452 0
2018-11-14 09:39:50 GMT 46.447266 -2.722868 35,025 211 452 0
2018-11-14 09:39:46 GMT 46.453400 -2.717575 35,025 211 453 0
2018-11-14 09:39:40 GMT 46.464951 -2.707581 35,025 211 452 0
2018-11-14 09:39:36 GMT 46.472992 -2.700627 35,025 211 452 0
2018-11-14 09:39:30 GMT 46.483383 -2.691650 35,025 211 452 0
2018-11-14 09:39:27 GMT 46.487732 -2.687832 35,025 211 453 0
2018-11-14 09:39:24 GMT 46.493500 -2.682875 35,025 211 453 0
2018-11-14 09:39:18 GMT 46.510391 -2.668204 35,025 211 453 0
2018-11-14 09:39:15 GMT 46.510391 -2.668204 35,025 211 453 0
2018-11-14 09:39:10 GMT 46.519318 -2.660500 35,025 211 454 0
2018-11-14 09:39:05 GMT 46.527695 -2.653265 35,025 211 454 0
2018-11-14 09:38:59 GMT 46.538132 -2.644289 35,025 211 454 0
2018-11-14 09:38:54 GMT 46.554424 -2.630127 35,025 211 454 0
2018-11-14 09:38:46 GMT 46.564529 -2.621338 35,025 211 454 0
2018-11-14 09:38:43 GMT 46.567459 -2.618797 35,025 211 454 0
2018-11-14 09:38:36 GMT 46.580887 -2.607109 35,000 211 454 0
2018-11-14 09:38:33 GMT 46.586288 -2.602420 35,000 211 454 0
2018-11-14 09:38:28 GMT 46.595306 -2.594582 35,000 211 454 0
2018-11-14 09:38:25 GMT 46.600513 -2.590027 35,000 211 454 0
2018-11-14 09:38:21 GMT 46.606655 -2.584740 35,000 211 454 64
2018-11-14 09:38:18 GMT 46.612801 -2.579384 35,000 211 454 64
2018-11-14 09:38:14 GMT 46.625656 -2.568255 35,000 212 453 0
2018-11-14 09:38:11 GMT 46.625656 -2.568255 35,000 211 454 0
2018-11-14 09:38:04 GMT 46.649368 -2.547555 35,000 212 453 0
2018-11-14 09:37:58 GMT 46.649368 -2.547555 35,000 212 453 0
2018-11-14 09:37:53 GMT 46.659805 -2.538445 35,000 212 453 0
2018-11-14 09:37:50 GMT 46.662846 -2.535851 35,000 212 453 0
2018-11-14 09:37:44 GMT 46.672901 -2.527061 35,000 212 453 0
2018-11-14 09:37:40 GMT 46.681141 -2.519852 35,000 212 453 0
2018-11-14 09:37:33 GMT 46.693634 -2.508969 35,000 212 453 0
2018-11-14 09:37:29 GMT 46.700600 -2.502823 35,000 212 453 0
2018-11-14 09:37:26 GMT 46.706371 -2.497810 34,975 212 453 0
2018-11-14 09:37:22 GMT 46.714005 -2.491150 35,000 211 452 0
2018-11-14 09:37:16 GMT 46.735046 -2.472816 34,975 211 452 0
2018-11-14 09:37:11 GMT 46.735046 -2.472816 34,975 211 452 0
2018-11-14 09:37:08 GMT 46.737671 -2.470517 34,975 211 452 0
2018-11-14 09:37:05 GMT 46.743614 -2.465332 34,975 211 452 0
2018-11-14 09:37:02 GMT 46.750038 -2.459702 34,975 211 452 0
2018-11-14 09:36:58 GMT 46.756508 -2.454071 34,975 212 451 0
2018-11-14 09:36:50 GMT 46.770103 -2.442123 34,975 212 451 0
2018-11-14 09:36:47 GMT 46.775986 -2.437022 35,000 212 451 0
2018-11-14 09:36:41 GMT 46.787560 -2.426811 34,975 212 451 0
2018-11-14 09:36:37 GMT 46.794205 -2.420945 35,000 212 450 0
2018-11-14 09:36:30 GMT 46.806290 -2.410293 35,000 212 451 0
2018-11-14 09:36:26 GMT 46.813065 -2.404331 34,975 212 450 0
2018-11-14 09:36:23 GMT 46.818192 -2.399757 35,000 212 450 0
2018-11-14 09:36:20 GMT 46.824463 -2.394283 34,975 212 450 0
2018-11-14 09:36:15 GMT 46.832901 -2.386848 34,975 212 449 0
2018-11-14 09:36:09 GMT 46.843235 -2.377785 35,000 212 450 0
2018-11-14 09:36:03 GMT 46.853760 -2.368559 34,975 212 450 0
2018-11-14 09:36:00 GMT 46.860535 -2.362596 34,975 212 450 0
2018-11-14 09:35:57 GMT 46.864929 -2.358765 34,975 212 450 0
2018-11-14 09:35:54 GMT 46.869911 -2.354384 34,975 212 450 0
2018-11-14 09:35:49 GMT 46.881687 -2.344102 34,975 212 449 0
2018-11-14 09:35:43 GMT 46.889053 -2.337616 34,975 212 449 0
2018-11-14 09:35:40 GMT 46.896103 -2.331436 34,975 212 449 0
2018-11-14 09:35:33 GMT 46.907990 -2.320932 34,975 212 449 0
2018-11-14 09:35:30 GMT 46.913670 -2.315932 34,975 212 449 0
2018-11-14 09:35:27 GMT 46.917625 -2.312411 34,975 212 449 0
2018-11-14 09:35:24 GMT 46.924656 -2.306213 34,975 212 448 0
2018-11-14 09:35:20 GMT 46.931305 -2.300331 34,975 212 448 0
2018-11-14 09:35:16 GMT 46.937622 -2.294769 34,975 212 448 0
2018-11-14 09:35:09 GMT 46.952225 -2.281860 34,975 212 448 0
2018-11-14 09:35:06 GMT 46.963852 -2.271635 34,975 212 448 0
2018-11-14 09:35:01 GMT 46.963852 -2.271635 34,975 212 448 0
2018-11-14 09:34:56 GMT 46.972733 -2.263802 34,975 212 447 0
2018-11-14 09:34:50 GMT 46.985504 -2.252541 34,975 212 447 0
2018-11-14 09:34:46 GMT 46.990540 -2.248077 34,975 212 447 0
2018-11-14 09:34:40 GMT 47.002121 -2.237846 34,975 212 447 0
2018-11-14 09:34:37 GMT 47.008163 -2.232559 34,975 212 447 0
2018-11-14 09:34:32 GMT 47.015533 -2.226036 34,975 212 446 0
2018-11-14 09:34:26 GMT 47.027721 -2.215294 34,975 212 446 0
2018-11-14 09:34:21 GMT 47.044666 -2.200294 34,975 212 446 0
2018-11-14 09:34:16 GMT 47.044666 -2.200294 34,975 212 446 0
2018-11-14 09:34:08 GMT 47.058609 -2.187927 34,975 212 446 0
2018-11-14 09:34:05 GMT 47.063290 -2.183744 34,975 212 445 0
2018-11-14 09:33:58 GMT 47.075996 -2.172476 34,975 212 445 0
2018-11-14 09:33:55 GMT 47.082779 -2.166435 34,975 212 445 0
2018-11-14 09:33:47 GMT 47.094818 -2.155724 34,975 212 445 0
2018-11-14 09:33:44 GMT 47.100128 -2.151054 34,975 212 446 0
2018-11-14 09:33:37 GMT 47.113586 -2.139107 34,975 212 446 0
2018-11-14 09:33:34 GMT 47.117989 -2.135151 35,000 212 446 0
2018-11-14 09:33:25 GMT 47.134277 -2.120705 34,975 212 446 0
2018-11-14 09:33:16 GMT 47.149521 -2.107178 35,000 212 446 0
2018-11-14 09:33:13 GMT 47.167740 -2.090904 35,000 212 446 -64
2018-11-14 09:33:06 GMT 47.167740 -2.090904 35,000 212 446 0
2018-11-14 09:33:02 GMT 47.174469 -2.084862 35,000 212 446 0
2018-11-14 09:32:59 GMT 47.180557 -2.079437 35,000 212 446 0
2018-11-14 09:32:55 GMT 47.187443 -2.073247 35,000 212 446 0
2018-11-14 09:32:52 GMT 47.191910 -2.069275 35,000 212 446 0
2018-11-14 09:32:44 GMT 47.211323 -2.051978 35,000 212 447 0
2018-11-14 09:32:35 GMT 47.221798 -2.042542 35,025 212 448 0
2018-11-14 09:32:31 GMT 47.229015 -2.036062 35,025 212 447 0
2018-11-14 09:32:23 GMT 47.243168 -2.023456 35,025 212 448 0
2018-11-14 09:32:19 GMT 47.251602 -2.015854 35,025 212 448 0
2018-11-14 09:32:13 GMT 47.260986 -2.007339 35,025 213 449 0
2018-11-14 09:32:10 GMT 47.265839 -2.002808 35,000 214 449 0
2018-11-14 09:32:02 GMT 47.280212 -1.988525 35,000 216 450 0
2018-11-14 09:31:59 GMT 47.284924 -1.983666 35,000 216 450 0
2018-11-14 09:31:53 GMT 47.296654 -1.970990 35,000 217 451 0
2018-11-14 09:31:49 GMT 47.301910 -1.965042 35,000 219 451 0
2018-11-14 09:31:45 GMT 47.308712 -1.957045 35,000 222 452 0
2018-11-14 09:31:42 GMT 47.313721 -1.951103 35,000 222 452 0
2018-11-14 09:31:38 GMT 47.318626 -1.944932 35,000 222 452 0
2018-11-14 09:31:32 GMT 47.331573 -1.928101 35,000 223 452 0
2018-11-14 09:31:28 GMT 47.334732 -1.923775 35,000 224 452 64
2018-11-14 09:31:21 GMT 47.346176 -1.907639 35,000 226 453 0
2018-11-14 09:31:18 GMT 47.350616 -1.901047 35,000 226 453 0
2018-11-14 09:31:13 GMT 47.357079 -1.891127 35,000 227 453 0
2018-11-14 09:31:10 GMT 47.362850 -1.882043 35,000 228 453 0
2018-11-14 09:31:06 GMT 47.367233 -1.874886 35,000 229 453 0
2018-11-14 09:31:02 GMT 47.373558 -1.864225 35,000 230 454 0
2018-11-14 09:30:59 GMT 47.376755 -1.858681 35,000 231 454 0
2018-11-14 09:30:56 GMT 47.380447 -1.852112 35,000 231 454 0
2018-11-14 09:30:53 GMT 47.385040 -1.843712 35,000 233 453 0
2018-11-14 09:30:49 GMT 47.390167 -1.834030 35,000 233 453 64
2018-11-14 09:30:46 GMT 47.393345 -1.827815 35,000 234 454 64
2018-11-14 09:30:41 GMT 47.406372 -1.801003 34,975 237 454 0
2018-11-14 09:30:36 GMT 47.406372 -1.801003 34,975 237 454 0
2018-11-14 09:30:30 GMT 47.413147 -1.786034 34,975 237 454 0
2018-11-14 09:30:26 GMT 47.418365 -1.774361 34,975 237 454 0
2018-11-14 09:30:21 GMT 47.423538 -1.762825 34,975 237 454 0
2018-11-14 09:30:18 GMT 47.428162 -1.752525 34,975 237 454 0
2018-11-14 09:30:14 GMT 47.430954 -1.746277 34,975 237 454 64
2018-11-14 09:30:11 GMT 47.436172 -1.734604 34,975 237 454 64
2018-11-14 09:30:04 GMT 47.443062 -1.719290 34,975 237 454 0
2018-11-14 09:30:01 GMT 47.445923 -1.712837 34,975 237 454 0
2018-11-14 09:29:58 GMT 47.449402 -1.705078 34,975 237 454 0
2018-11-14 09:29:52 GMT 47.457230 -1.687569 34,975 237 453 0
2018-11-14 09:29:49 GMT 47.461578 -1.677818 34,975 237 453 0
2018-11-14 09:29:44 GMT 47.465515 -1.669029 34,975 237 452 0
2018-11-14 09:29:41 GMT 47.469589 -1.660034 34,975 237 452 0
2018-11-14 09:29:38 GMT 47.473755 -1.650627 34,975 237 452 0
2018-11-14 09:29:35 GMT 47.476486 -1.644639 34,975 237 452 0
2018-11-14 09:29:32 GMT 47.480988 -1.634422 34,975 237 452 0
2018-11-14 09:29:29 GMT 47.482773 -1.630440 34,975 237 452 0
2018-11-14 09:29:25 GMT 47.487659 -1.619568 34,975 237 452 0
2018-11-14 09:29:22 GMT 47.492065 -1.609634 34,975 237 452 0
2018-11-14 09:29:19 GMT 47.495224 -1.602631 34,975 237 452 0
2018-11-14 09:29:15 GMT 47.500488 -1.590683 34,975 237 452 0
2018-11-14 09:29:10 GMT 47.505066 -1.580383 34,975 237 451 0
2018-11-14 09:29:04 GMT 47.513306 -1.561913 34,975 237 451 0
2018-11-14 09:28:59 GMT 47.519405 -1.548298 34,975 237 451 0
2018-11-14 09:28:52 GMT 47.525040 -1.535762 34,975 237 452 0
2018-11-14 09:28:48 GMT 47.530907 -1.522522 34,975 237 452 0
2018-11-14 09:28:43 GMT 47.537331 -1.508155 34,975 237 452 0
2018-11-14 09:28:40 GMT 47.539890 -1.502310 34,975 237 451 0
2018-11-14 09:28:35 GMT 47.545010 -1.490831 34,975 237 452 0
2018-11-14 09:28:32 GMT 47.549561 -1.480476 34,975 237 452 0
2018-11-14 09:28:29 GMT 47.552879 -1.473013 34,975 237 452 0
2018-11-14 09:28:24 GMT 47.557571 -1.462418 34,975 237 452 0
2018-11-14 09:28:21 GMT 47.561398 -1.453717 34,975 237 452 0
2018-11-14 09:28:17 GMT 47.566269 -1.442711 34,975 237 452 0
2018-11-14 09:28:10 GMT 47.574234 -1.424721 34,975 237 452 0
2018-11-14 09:28:06 GMT 47.579506 -1.412800 34,975 237 452 0
2018-11-14 09:27:59 GMT 47.586254 -1.397588 34,975 237 452 0
2018-11-14 09:27:56 GMT 47.589798 -1.389565 35,000 237 452 0
2018-11-14 09:27:50 GMT 47.597946 -1.371231 35,000 237 451 0
2018-11-14 09:27:46 GMT 47.606277 -1.352280 35,000 237 453 -64
2018-11-14 09:27:37 GMT 47.611725 -1.339989 35,000 237 452 0
2018-11-14 09:27:33 GMT 47.616394 -1.329414 35,000 237 452 0
2018-11-14 09:27:29 GMT 47.621216 -1.318430 34,975 237 452 0
2018-11-14 09:27:26 GMT 47.624542 -1.310875 35,000 237 453 -64
2018-11-14 09:27:18 GMT 47.633461 -1.290471 35,000 237 453 -64
2018-11-14 09:27:15 GMT 47.637360 -1.281624 35,000 237 453 -64
2018-11-14 09:27:07 GMT 47.645611 -1.262794 35,000 237 453 0
2018-11-14 09:27:04 GMT 47.648544 -1.256244 35,000 237 453 0
2018-11-14 09:26:58 GMT 47.660694 -1.228567 35,000 237 453 0
2018-11-14 09:26:55 GMT 47.660694 -1.228567 35,000 237 453 0
2018-11-14 09:26:47 GMT 47.668934 -1.209764 35,000 238 454 0
2018-11-14 09:26:44 GMT 47.672104 -1.202522 35,000 238 454 0
2018-11-14 09:26:36 GMT 47.681580 -1.181030 35,000 237 454 0
2018-11-14 09:26:33 GMT 47.684326 -1.174782 35,000 237 454 0
2018-11-14 09:26:25 GMT 47.696819 -1.146240 35,000 238 455 0
2018-11-14 09:26:22 GMT 47.696819 -1.146240 34,975 238 455 0
2018-11-14 09:26:15 GMT 47.705658 -1.126099 35,000 238 454 0
2018-11-14 09:26:12 GMT 47.708595 -1.119408 35,000 238 454 0
2018-11-14 09:26:05 GMT 47.717159 -1.099760 35,000 238 455 0
2018-11-14 09:26:01 GMT 47.721256 -1.090393 34,975 238 454 0
2018-11-14 09:25:56 GMT 47.727776 -1.075463 35,000 238 455 0
2018-11-14 09:25:53 GMT 47.731079 -1.067857 35,000 238 454 0
2018-11-14 09:25:49 GMT 47.734406 -1.060181 35,000 238 454 0
2018-11-14 09:25:45 GMT 47.738937 -1.049812 34,975 238 455 0
2018-11-14 09:25:42 GMT 47.743286 -1.039925 34,975 238 455 0
2018-11-14 09:25:34 GMT 47.752819 -1.017996 34,975 238 455 0
2018-11-14 09:25:31 GMT 47.755692 -1.011429 34,975 238 456 0
2018-11-14 09:25:28 GMT 47.758621 -1.004700 34,975 238 456 0
2018-11-14 09:25:25 GMT 47.762272 -0.996305 34,975 238 456 0
2018-11-14 09:25:22 GMT 47.765995 -0.987784 34,975 238 456 0
2018-11-14 09:25:19 GMT 47.768787 -0.981375 35,000 238 455 0
2018-11-14 09:25:13 GMT 47.776428 -0.963844 34,975 238 455 0
2018-11-14 09:25:10 GMT 47.779175 -0.957458 35,000 238 455 0
2018-11-14 09:25:05 GMT 47.785500 -0.942993 35,000 238 455 0
2018-11-14 09:25:01 GMT 47.789658 -0.933357 35,000 238 455 0
2018-11-14 09:24:58 GMT 47.792908 -0.925941 35,000 238 455 0
2018-11-14 09:24:54 GMT 47.797371 -0.915739 35,000 238 455 0
2018-11-14 09:24:50 GMT 47.803051 -0.902640 35,000 238 455 0
2018-11-14 09:24:46 GMT 47.806496 -0.894681 35,000 238 455 0
2018-11-14 09:24:43 GMT 47.811058 -0.884188 35,000 238 455 0
2018-11-14 09:24:40 GMT 47.814968 -0.875103 35,000 238 456 0
2018-11-14 09:24:37 GMT 47.816986 -0.870529 35,000 238 456 0
2018-11-14 09:24:32 GMT 47.823029 -0.856590 35,000 238 456 0
2018-11-14 09:24:27 GMT 47.828140 -0.844750 35,000 238 456 0
2018-11-14 09:24:24 GMT 47.832184 -0.835442 35,000 238 456 0
2018-11-14 09:24:21 GMT 47.839508 -0.818481 35,000 238 456 0
2018-11-14 09:24:18 GMT 47.839508 -0.818481 35,000 238 456 0
2018-11-14 09:24:14 GMT 47.843876 -0.808340 35,000 238 456 0
2018-11-14 09:24:11 GMT 47.846741 -0.801796 35,000 238 456 0
2018-11-14 09:24:08 GMT 47.850765 -0.792495 35,000 238 457 0
2018-11-14 09:24:05 GMT 47.853012 -0.787308 35,000 238 457 0
2018-11-14 09:24:01 GMT 47.858028 -0.775663 35,000 238 457 0
2018-11-14 09:23:58 GMT 47.862171 -0.766156 35,000 238 457 0
2018-11-14 09:23:55 GMT 47.865337 -0.758761 35,000 238 457 -64
2018-11-14 09:23:51 GMT 47.873108 -0.740753 35,025 238 457 0
2018-11-14 09:23:48 GMT 47.876404 -0.733131 35,025 238 457 0
2018-11-14 09:23:42 GMT 47.879208 -0.726577 35,025 238 457 0
2018-11-14 09:23:39 GMT 47.882767 -0.718369 35,000 238 457 64
2018-11-14 09:23:36 GMT 47.886429 -0.709923 35,000 238 457 0
2018-11-14 09:23:33 GMT 47.891220 -0.698829 35,000 238 458 0
2018-11-14 09:23:29 GMT 47.894802 -0.690519 35,000 238 458 0
2018-11-14 09:23:26 GMT 47.897873 -0.683418 35,000 238 458 0
2018-11-14 09:23:20 GMT 47.904579 -0.667842 35,000 238 458 0
2018-11-14 09:23:17 GMT 47.908489 -0.658687 35,000 238 458 0
2018-11-14 09:23:13 GMT 47.913162 -0.647850 35,000 238 458 0
2018-11-14 09:23:09 GMT 47.917923 -0.636795 35,000 238 458 0
2018-11-14 09:23:06 GMT 47.921539 -0.628349 35,000 238 458 0
2018-11-14 09:23:02 GMT 47.925762 -0.618544 35,000 238 458 0
2018-11-14 09:22:59 GMT 47.930145 -0.608299 35,000 238 457 64
2018-11-14 09:22:54 GMT 47.939301 -0.587013 35,000 238 457 64
2018-11-14 09:22:51 GMT 47.939301 -0.587013 35,000 238 457 64
2018-11-14 09:22:48 GMT 47.941544 -0.581782 35,000 238 457 0
2018-11-14 09:22:45 GMT 47.946198 -0.570937 34,975 238 457 0
2018-11-14 09:22:41 GMT 47.949505 -0.563261 34,975 238 458 0
2018-11-14 09:22:36 GMT 47.954819 -0.550827 35,000 238 457 0
2018-11-14 09:22:33 GMT 47.957977 -0.543480 35,000 238 457 0
2018-11-14 09:22:30 GMT 47.962280 -0.533386 35,000 238 457 0
2018-11-14 09:22:26 GMT 47.967335 -0.521639 35,000 238 457 0
2018-11-14 09:22:23 GMT 47.970173 -0.515019 35,000 238 457 0
2018-11-14 09:22:20 GMT 47.973450 -0.507362 35,000 238 457 0
2018-11-14 09:22:17 GMT 47.981506 -0.488548 35,000 238 457 0
2018-11-14 09:22:13 GMT 47.981506 -0.488548 34,450 238 456 0
2018-11-14 09:22:10 GMT 47.985348 -0.479455 34,975 238 457 0
2018-11-14 09:22:07 GMT 47.989258 -0.470299 35,000 238 457 0
2018-11-14 09:22:04 GMT 47.994892 -0.457130 34,975 238 458 0
2018-11-14 09:21:58 GMT 47.998398 -0.448929 34,975 238 458 0
2018-11-14 09:21:55 GMT 48.001362 -0.441918 35,000 238 458 0
2018-11-14 09:21:52 GMT 48.005550 -0.432058 34,975 238 458 0
2018-11-14 09:21:49 GMT 48.008949 -0.424100 34,975 238 458 0
2018-11-14 09:21:45 GMT 48.012814 -0.415086 34,975 238 457 0
2018-11-14 09:21:42 GMT 48.016113 -0.407318 35,000 238 457 0
2018-11-14 09:21:38 GMT 48.021652 -0.394341 34,975 238 457 0
2018-11-14 09:21:35 GMT 48.029621 -0.375648 34,975 238 457 0
2018-11-14 09:21:31 GMT 48.029621 -0.375648 34,975 238 457 0
2018-11-14 09:21:28 GMT 48.031620 -0.371000 34,975 238 457 0
2018-11-14 09:21:24 GMT 48.036228 -0.360084 34,975 238 457 0
2018-11-14 09:21:21 GMT 48.039688 -0.351974 35,000 238 456 0
2018-11-14 09:21:18 GMT 48.043991 -0.341881 35,000 238 456 0
2018-11-14 09:21:15 GMT 48.048332 -0.331632 35,000 238 455 0
2018-11-14 09:21:11 GMT 48.050995 -0.325401 35,000 238 455 0
2018-11-14 09:21:08 GMT 48.055641 -0.314308 35,000 238 455 0
2018-11-14 09:21:05 GMT 48.059464 -0.305351 35,000 238 455 0
2018-11-14 09:21:02 GMT 48.065697 -0.290715 35,000 238 455 0
2018-11-14 09:20:59 GMT 48.065697 -0.290715 35,000 238 454 0
2018-11-14 09:20:56 GMT 48.067795 -0.285782 35,000 238 454 0
2018-11-14 09:20:53 GMT 48.071777 -0.276443 35,000 238 455 0
2018-11-14 09:20:50 GMT 48.075851 -0.266830 35,000 238 455 0
2018-11-14 09:20:47 GMT 48.078964 -0.259517 35,000 238 455 0
2018-11-14 09:20:43 GMT 48.083405 -0.249046 35,000 238 456 0
2018-11-14 09:20:40 GMT 48.086693 -0.241347 35,000 238 456 0
2018-11-14 09:20:37 GMT 48.090324 -0.232685 35,000 238 456 0
2018-11-14 09:20:33 GMT 48.094894 -0.221992 35,000 238 457 64
2018-11-14 09:20:29 GMT 48.098053 -0.214508 34,975 238 457 64
2018-11-14 09:20:26 GMT 48.102493 -0.203934 34,975 238 457 64
2018-11-14 09:20:22 GMT 48.106796 -0.193771 33,375 238 458 64
2018-11-14 09:20:18 GMT 48.111691 -0.182190 34,975 238 459 64
2018-11-14 09:20:15 GMT 48.114304 -0.176056 34,950 238 459 128
2018-11-14 09:20:11 GMT 48.118999 -0.165006 34,950 238 460 320
2018-11-14 09:20:07 GMT 48.124924 -0.150925 34,900 238 458 960
2018-11-14 09:20:04 GMT 48.128082 -0.143509 34,850 238 459 1280
2018-11-14 09:19:58 GMT 48.133942 -0.129653 34,450 238 466 1344
2018-11-14 09:19:54 GMT 48.138336 -0.119202 34,375 238 470 768
2018-11-14 09:19:51 GMT 48.141903 -0.110779 34,100 238 461 1600
2018-11-14 09:19:47 GMT 48.147583 -0.097229 34,450 238 464 1472
2018-11-14 09:19:43 GMT 48.150703 -0.089792 34,150 238 466 1344
2018-11-14 09:19:40 GMT 48.154148 -0.081623 34,250 238 466 1344
2018-11-14 09:19:36 GMT 48.158524 -0.071341 33,350 238 467 640
2018-11-14 09:19:32 GMT 48.163101 -0.060495 34,000 238 466 1216
2018-11-14 09:19:29 GMT 48.168045 -0.048734 34,025 238 467 1216
2018-11-14 09:19:26 GMT 48.170254 -0.043439 33,975 238 467 1216
2018-11-14 09:19:22 GMT 48.174500 -0.033311 33,850 238 467 1344
2018-11-14 09:19:19 GMT 48.181686 -0.016198 33,800 238 470 1344
2018-11-14 09:19:16 GMT 48.181686 -0.016198 33,725 238 470 1216
2018-11-14 09:19:13 GMT 48.185478 -0.007228 33,675 238 470 1088
2018-11-14 09:19:10 GMT 48.189743 0.002887 33,625 238 470 512
2018-11-14 09:19:04 GMT 48.196472 0.018944 33,550 238 470 512
2018-11-14 09:19:01 GMT 48.198559 0.023924 33,500 238 469 512
2018-11-14 09:18:58 GMT 48.202560 0.033452 33,450 238 467 640
2018-11-14 09:18:55 GMT 48.205772 0.041054 33,475 238 467 640
2018-11-14 09:18:52 GMT 48.209335 0.049509 33,400 238 467 768
2018-11-14 09:18:48 GMT 48.214188 0.061059 33,375 238 467 832
2018-11-14 09:18:45 GMT 48.218018 0.070255 33,350 238 467 896
2018-11-14 09:18:42 GMT 48.221882 0.079506 33,300 238 467 832
2018-11-14 09:18:38 GMT 48.225632 0.088454 33,200 238 467 832
2018-11-14 09:18:35 GMT 48.229065 0.096694 33,175 238 467 768
2018-11-14 09:18:32 GMT 48.232868 0.105743 33,150 238 467 704
2018-11-14 09:18:28 GMT 48.237568 0.116947 33,125 238 467 640
2018-11-14 09:18:25 GMT 48.241104 0.125403 33,050 238 465 704
2018-11-14 09:18:22 GMT 48.244087 0.132486 33,050 238 465 512
2018-11-14 09:18:19 GMT 48.248417 0.142895 33,000 238 465 320
2018-11-14 09:18:15 GMT 48.252327 0.152218 32,975 239 464 1408
2018-11-14 09:18:11 GMT 48.260605 0.172049 32,975 238 467 64
2018-11-14 09:18:07 GMT 48.260605 0.172049 32,975 238 467 0
2018-11-14 09:18:04 GMT 48.267700 0.189021 32,975 238 467 64
2018-11-14 09:18:01 GMT 48.267700 0.189021 32,975 238 467 64
2018-11-14 09:17:57 GMT 48.272232 0.199796 32,525 239 466 256
2018-11-14 09:17:54 GMT 48.276718 0.210692 32,950 239 466 256
2018-11-14 09:17:51 GMT 48.279602 0.217543 32,950 239 466 320
2018-11-14 09:17:47 GMT 48.284073 0.228328 32,925 238 465 576
2018-11-14 09:17:44 GMT 48.287518 0.236567 32,900 239 465 768
2018-11-14 09:17:41 GMT 48.290268 0.243108 32,875 239 465 704
2018-11-14 09:17:38 GMT 48.295212 0.255080 32,825 239 464 704
2018-11-14 09:17:35 GMT 48.298878 0.263816 32,775 239 464 704
2018-11-14 09:17:32 GMT 48.301071 0.269447 32,775 239 464 704
2018-11-14 09:17:29 GMT 48.303909 0.275996 32,700 239 463 832
2018-11-14 09:17:26 GMT 48.308853 0.287828 32,675 239 463 768
2018-11-14 09:17:23 GMT 48.310562 0.292005 32,650 239 463 768
2018-11-14 09:17:20 GMT 48.314053 0.300389 32,475 239 463 832
2018-11-14 09:17:17 GMT 48.317963 0.309800 32,375 239 462 1280
2018-11-14 09:17:13 GMT 48.322037 0.319589 32,500 239 463 1472
2018-11-14 09:17:10 GMT 48.325600 0.328144 32,450 239 462 1088
2018-11-14 09:17:06 GMT 48.330551 0.340154 32,375 239 462 1152
2018-11-14 09:17:03 GMT 48.336819 0.355321 32,250 239 462 1408
2018-11-14 09:17:00 GMT 48.340530 0.364239 32,075 239 464 1408
2018-11-14 09:16:57 GMT 48.340530 0.364239 32,175 239 463 1472
2018-11-14 09:16:54 GMT 48.344376 0.373535 32,075 239 463 1472
2018-11-14 09:16:51 GMT 48.348316 0.382931 32,025 239 466 1344
2018-11-14 09:16:48 GMT 48.352295 0.392691 31,925 239 464 1344
2018-11-14 09:16:43 GMT 48.357559 0.405367 31,825 239 466 1216
2018-11-14 09:16:39 GMT 48.361118 0.413939 31,750 239 466 1088
2018-11-14 09:16:35 GMT 48.365868 0.425503 31,650 239 466 896
2018-11-14 09:16:32 GMT 48.372482 0.441566 31,575 239 466 896
2018-11-14 09:16:29 GMT 48.372482 0.441566 31,575 239 466 832
2018-11-14 09:16:26 GMT 48.375549 0.448994 31,425 239 465 704
2018-11-14 09:16:22 GMT 48.380310 0.460722 31,500 239 465 512
2018-11-14 09:16:19 GMT 48.384659 0.471004 31,450 239 464 384
2018-11-14 09:16:16 GMT 48.387451 0.477835 31,425 239 462 1280
2018-11-14 09:16:11 GMT 48.395847 0.498288 31,200 239 462 1088
2018-11-14 09:16:08 GMT 48.403526 0.516936 31,125 239 463 1344
2018-11-14 09:16:02 GMT 48.403526 0.516936 31,200 239 462 1216
2018-11-14 09:15:57 GMT 48.408554 0.529175 31,175 239 462 1280
2018-11-14 09:15:54 GMT 48.411255 0.535724 31,075 239 462 1344
2018-11-14 09:15:51 GMT 48.415146 0.545161 31,000 239 462 1344
2018-11-14 09:15:46 GMT 48.420822 0.559035 30,825 239 464 1088
2018-11-14 09:15:41 GMT 48.426544 0.572909 30,775 239 464 1152
2018-11-14 09:15:37 GMT 48.431030 0.583895 30,600 239 464 1088
2018-11-14 09:15:32 GMT 48.436615 0.597487 29,900 239 462 896
2018-11-14 09:15:29 GMT 48.441280 0.608802 30,525 239 464 1088
2018-11-14 09:15:26 GMT 48.443096 0.613283 30,500 239 464 1088
2018-11-14 09:15:23 GMT 48.446495 0.621523 30,450 239 464 1152
2018-11-14 09:15:20 GMT 48.450439 0.631080 30,350 239 463 1024
2018-11-14 09:15:16 GMT 48.453644 0.638897 30,325 239 463 960
2018-11-14 09:15:13 GMT 48.457397 0.648053 30,275 239 462 960
2018-11-14 09:15:08 GMT 48.463814 0.663733 30,150 239 462 1152
2018-11-14 09:15:05 GMT 48.466743 0.670817 30,000 239 462 1216
2018-11-14 09:15:00 GMT 48.472092 0.683829 30,000 239 462 1280
2018-11-14 09:14:57 GMT 48.475159 0.691294 29,950 239 462 1280
2018-11-14 09:14:54 GMT 48.479500 0.701969 29,850 239 462 1280
2018-11-14 09:14:50 GMT 48.483856 0.712562 29,775 239 463 1216
2018-11-14 09:14:46 GMT 48.488022 0.722785 29,675 239 463 1024
2018-11-14 09:14:43 GMT 48.495190 0.740204 29,525 239 461 896
2018-11-14 09:14:40 GMT 48.495190 0.740204 29,600 239 462 832
2018-11-14 09:14:35 GMT 48.500587 0.753431 29,525 239 462 832
2018-11-14 09:14:31 GMT 48.504730 0.763550 29,325 239 461 960
2018-11-14 09:14:27 GMT 48.509171 0.774466 29,325 239 460 1024
2018-11-14 09:14:23 GMT 48.513718 0.785595 29,200 239 460 1024
2018-11-14 09:14:19 GMT 48.517868 0.795805 29,275 239 459 1088
2018-11-14 09:14:16 GMT 48.522263 0.806650 29,200 239 459 1088
2018-11-14 09:14:13 GMT 48.525261 0.814000 29,075 239 459 1088
2018-11-14 09:14:09 GMT 48.529732 0.824987 29,075 239 459 1088
2018-11-14 09:14:05 GMT 48.533798 0.834961 28,950 239 458 960
2018-11-14 09:14:02 GMT 48.537041 0.842912 28,950 239 457 960
2018-11-14 09:13:59 GMT 48.540344 0.851079 28,900 239 458 960
2018-11-14 09:13:55 GMT 48.545151 0.862849 28,825 239 458 960
2018-11-14 09:13:51 GMT 48.549843 0.874497 28,650 239 456 960
2018-11-14 09:13:46 GMT 48.555725 0.888907 28,675 239 456 960
2018-11-14 09:13:41 GMT 48.559944 0.899289 28,600 239 456 960
2018-11-14 09:13:37 GMT 48.564514 0.910527 28,425 239 454 1024
2018-11-14 09:13:34 GMT 48.568321 0.920033 28,200 239 445 832
2018-11-14 09:13:29 GMT 48.573944 0.933908 28,350 239 453 1280
2018-11-14 09:13:26 GMT 48.576424 0.939982 28,350 239 453 1280
2018-11-14 09:13:23 GMT 48.580147 0.949161 28,250 239 453 1280
2018-11-14 09:13:20 GMT 48.583172 0.956678 27,900 239 451 1024
2018-11-14 09:13:17 GMT 48.588135 0.968910 27,875 239 453 1216
2018-11-14 09:13:14 GMT 48.590286 0.974192 28,100 239 453 1216
2018-11-14 09:13:10 GMT 48.594223 0.984051 28,050 239 453 1216
2018-11-14 09:13:07 GMT 48.597370 0.991733 27,925 239 452 1024
2018-11-14 09:13:04 GMT 48.601776 1.002643 27,875 239 452 1024
2018-11-14 09:12:58 GMT 48.608826 1.020109 26,950 239 451 1024
2018-11-14 09:12:55 GMT 48.610405 1.024041 27,725 239 451 896
2018-11-14 09:12:52 GMT 48.613243 1.030980 27,375 239 445 896
2018-11-14 09:12:48 GMT 48.617844 1.042504 27,650 239 449 832
2018-11-14 09:12:45 GMT 48.620911 1.050039 27,550 239 448 1088
2018-11-14 09:12:42 GMT 48.624344 1.058561 27,550 239 448 896
2018-11-14 09:12:38 GMT 48.628746 1.069505 27,050 239 447 1152
2018-11-14 09:12:35 GMT 48.632080 1.077787 27,375 239 447 1152
2018-11-14 09:12:32 GMT 48.635403 1.085984 27,350 239 447 1088
2018-11-14 09:12:29 GMT 48.638847 1.094441 27,325 239 444 768
2018-11-14 09:12:26 GMT 48.641556 1.101168 27,200 239 446 1024
2018-11-14 09:12:22 GMT 48.650860 1.124292 27,150 239 444 832
2018-11-14 09:12:18 GMT 48.650860 1.124292 27,100 239 444 832
2018-11-14 09:12:15 GMT 48.653374 1.130580 27,075 240 442 832
2018-11-14 09:12:11 GMT 48.657188 1.140265 27,025 240 442 832
2018-11-14 09:12:06 GMT 48.662933 1.154903 26,950 241 440 832
2018-11-14 09:12:00 GMT 48.668243 1.169340 26,750 245 438 1024
2018-11-14 09:11:56 GMT 48.672821 1.183073 26,800 245 438 1024
2018-11-14 09:11:53 GMT 48.675301 1.190860 26,750 247 437 1024
2018-11-14 09:11:50 GMT 48.677486 1.198233 26,675 250 435 1088
2018-11-14 09:11:45 GMT 48.683350 1.219764 26,600 250 435 1088
2018-11-14 09:11:38 GMT 48.686417 1.232370 26,450 251 434 1152
2018-11-14 09:11:35 GMT 48.688473 1.241238 26,450 252 434 1152
2018-11-14 09:11:32 GMT 48.692551 1.259906 26,250 252 432 1088
2018-11-14 09:11:29 GMT 48.692551 1.259906 26,250 252 431 1024
2018-11-14 09:11:26 GMT 48.694710 1.269933 26,225 252 431 1024
2018-11-14 09:11:23 GMT 48.696579 1.278217 26,175 252 430 1088
2018-11-14 09:11:18 GMT 48.699272 1.290604 26,100 252 429 1088
2018-11-14 09:11:15 GMT 48.701740 1.301952 25,975 252 429 1152
2018-11-14 09:11:12 GMT 48.702717 1.306433 26,000 252 428 1216
2018-11-14 09:11:07 GMT 48.706146 1.322092 25,850 252 427 1024
2018-11-14 09:11:04 GMT 48.707699 1.329201 25,800 252 427 896
2018-11-14 09:11:01 GMT 48.712326 1.350403 25,725 252 426 960
2018-11-14 09:10:58 GMT 48.712326 1.350403 25,700 252 426 1024
2018-11-14 09:10:55 GMT 48.713562 1.356107 25,675 252 425 1024
2018-11-14 09:10:52 GMT 48.715302 1.364065 25,500 252 423 1088
2018-11-14 09:10:49 GMT 48.716904 1.371390 25,575 252 424 1152
2018-11-14 09:10:45 GMT 48.719383 1.382904 25,475 252 423 1152
2018-11-14 09:10:42 GMT 48.721432 1.392445 25,425 252 422 1152
2018-11-14 09:10:37 GMT 48.723991 1.404154 25,250 252 421 1472
2018-11-14 09:10:34 GMT 48.726837 1.417377 25,225 252 420 1536
2018-11-14 09:10:31 GMT 48.727661 1.421180 25,125 252 420 1536
2018-11-14 09:10:28 GMT 48.729492 1.429561 25,125 252 420 1536
2018-11-14 09:10:24 GMT 48.732697 1.444485 24,925 252 420 1472
2018-11-14 09:10:21 GMT 48.734207 1.451393 24,850 252 419 1344
2018-11-14 09:10:18 GMT 48.735672 1.458083 24,850 252 419 1344
2018-11-14 09:10:15 GMT 48.737823 1.468083 24,725 252 419 1408
2018-11-14 09:10:12 GMT 48.739590 1.476143 24,700 252 419 1344
2018-11-14 09:10:07 GMT 48.743080 1.492334 24,575 252 415 1024
2018-11-14 09:10:02 GMT 48.745686 1.504549 24,475 252 417 1216
2018-11-14 09:09:57 GMT 48.748478 1.517342 24,350 253 414 896
2018-11-14 09:09:54 GMT 48.750572 1.527244 24,275 253 414 896
2018-11-14 09:09:51 GMT 48.752155 1.534472 24,275 253 414 896
2018-11-14 09:09:47 GMT 48.754578 1.545692 24,025 252 408 1280
2018-11-14 09:09:43 GMT 48.756729 1.555692 24,075 253 411 1152
2018-11-14 09:09:40 GMT 48.758698 1.564848 24,075 253 411 1472
2018-11-14 09:09:36 GMT 48.760769 1.574442 24,000 252 410 1600
2018-11-14 09:09:33 GMT 48.762726 1.583766 23,900 252 410 1664
2018-11-14 09:09:29 GMT 48.765099 1.594752 23,325 252 410 1664
2018-11-14 09:09:26 GMT 48.766586 1.601763 23,725 253 409 1664
2018-11-14 09:09:21 GMT 48.770126 1.618098 23,550 252 410 1664
2018-11-14 09:09:18 GMT 48.771561 1.624920 23,475 252 410 1600
2018-11-14 09:09:15 GMT 48.773060 1.631687 23,250 252 409 1280
2018-11-14 09:09:11 GMT 48.775681 1.643935 23,300 252 409 1280
2018-11-14 09:09:08 GMT 48.777649 1.653161 23,100 253 407 1280
2018-11-14 09:09:05 GMT 48.779160 1.660274 22,900 253 403 1472
2018-11-14 09:09:01 GMT 48.781670 1.671946 23,050 253 404 1472
2018-11-14 09:08:58 GMT 48.783070 1.678306 23,050 253 405 1280
2018-11-14 09:08:55 GMT 48.784653 1.685627 23,000 253 404 1344
2018-11-14 09:08:52 GMT 48.786652 1.695075 22,900 253 404 1472
2018-11-14 09:08:49 GMT 48.790192 1.711699 22,800 253 399 1856
2018-11-14 09:08:46 GMT 48.790192 1.711699 22,750 253 402 1536
2018-11-14 09:08:42 GMT 48.792297 1.721614 22,650 253 402 1600
2018-11-14 09:08:38 GMT 48.794266 1.730769 22,450 253 401 1664
2018-11-14 09:08:35 GMT 48.796417 1.740981 22,450 253 401 1600
2018-11-14 09:08:32 GMT 48.798058 1.748705 22,425 253 401 1536
2018-11-14 09:08:29 GMT 48.799782 1.756656 22,300 253 400 1600
2018-11-14 09:08:26 GMT 48.801636 1.765489 22,150 253 400 1600
2018-11-14 09:08:23 GMT 48.802780 1.770841 21,375 253 399 1920
2018-11-14 09:08:20 GMT 48.804474 1.778799 21,375 253 399 1920
2018-11-14 09:08:17 GMT 48.806438 1.788097 21,975 253 399 1856
2018-11-14 09:08:14 GMT 48.808548 1.797955 21,875 253 399 2048
2018-11-14 09:08:11 GMT 48.810471 1.806969 21,725 253 399 1920
2018-11-14 09:08:08 GMT 48.811649 1.812600 21,525 253 399 1856
2018-11-14 09:08:05 GMT 48.813698 1.822140 21,525 253 399 1856
2018-11-14 09:08:02 GMT 48.815323 1.829857 21,450 253 399 1856
2018-11-14 09:07:56 GMT 48.818253 1.843731 21,300 253 399 1856
2018-11-14 09:07:53 GMT 48.819946 1.851760 21,200 253 398 1792
2018-11-14 09:07:50 GMT 48.821823 1.860774 21,150 253 397 1664
2018-11-14 09:07:47 GMT 48.823334 1.867820 20,975 253 397 1728
2018-11-14 09:07:44 GMT 48.825710 1.879024 20,900 253 396 1664
2018-11-14 09:07:41 GMT 48.826778 1.884228 20,825 253 396 1664
2018-11-14 09:07:37 GMT 48.828827 1.893841 20,525 253 395 1664
2018-11-14 09:07:33 GMT 48.831715 1.907501 20,600 253 394 1664
2018-11-14 09:07:30 GMT 48.833389 1.915380 20,525 253 394 1664
2018-11-14 09:07:27 GMT 48.834602 1.921234 20,425 253 393 1664
2018-11-14 09:07:24 GMT 48.835953 1.927522 20,350 253 393 1664
2018-11-14 09:07:21 GMT 48.837906 1.936991 20,200 257 391 1600
2018-11-14 09:07:17 GMT 48.840088 1.947679 20,150 255 392 1600
2018-11-14 09:07:14 GMT 48.841442 1.954844 20,100 256 391 1600
2018-11-14 09:07:11 GMT 48.842880 1.963665 19,025 268 369 2176
2018-11-14 09:07:08 GMT 48.843773 1.970311 20,000 259 390 1472
2018-11-14 09:07:05 GMT 48.844711 1.978666 19,875 263 388 1344
2018-11-14 09:07:02 GMT 48.845627 1.988878 19,800 265 386 1344
2018-11-14 09:06:58 GMT 48.846313 2.000709 19,675 268 385 1728
2018-11-14 09:06:55 GMT 48.846519 2.006450 19,475 268 385 1856
2018-11-14 09:06:52 GMT 48.846725 2.014301 19,500 268 384 2176
2018-11-14 09:06:49 GMT 48.847000 2.022329 19,225 268 379 1728
2018-11-14 09:06:45 GMT 48.847321 2.033034 19,225 268 385 2432
2018-11-14 09:06:42 GMT 48.847595 2.041133 19,150 268 385 2368
2018-11-14 09:06:39 GMT 48.847778 2.048176 19,075 268 385 2240
2018-11-14 09:06:35 GMT 48.848145 2.059937 18,925 268 385 1792
2018-11-14 09:06:29 GMT 48.848648 2.076698 18,775 268 384 1408
2018-11-14 09:06:26 GMT 48.849171 2.094630 18,600 268 382 1280
2018-11-14 09:06:22 GMT 48.849171 2.094630 18,600 268 381 1344
2018-11-14 09:06:19 GMT 48.849449 2.103159 18,550 268 380 1600
2018-11-14 09:06:16 GMT 48.849655 2.110854 18,325 268 378 1984
2018-11-14 09:06:13 GMT 48.849918 2.118627 18,350 268 378 2112
2018-11-14 09:06:09 GMT 48.850296 2.131489 18,225 268 378 2176
2018-11-14 09:06:04 GMT 48.850616 2.142686 18,075 268 377 1984
2018-11-14 09:06:01 GMT 48.850849 2.149851 17,950 268 377 1792
2018-11-14 09:05:58 GMT 48.851082 2.158741 17,625 268 369 2176
2018-11-14 09:05:53 GMT 48.851498 2.172836 17,700 268 374 1792
2018-11-14 09:05:47 GMT 48.851917 2.185557 17,200 268 369 2176
2018-11-14 09:05:43 GMT 48.852291 2.198567 17,325 268 372 2112
2018-11-14 09:05:37 GMT 48.852722 2.213393 17,200 268 371 2176
2018-11-14 09:05:31 GMT 48.853176 2.227695 17,000 268 370 2112
2018-11-14 09:05:28 GMT 48.853779 2.248367 16,725 268 369 2176
2018-11-14 09:05:24 GMT 48.853779 2.248367 16,675 268 369 2176
2018-11-14 09:05:20 GMT 48.854061 2.258269 16,575 268 369 2240
2018-11-14 09:05:16 GMT 48.854294 2.265930 16,500 268 368 2304
2018-11-14 09:05:13 GMT 48.854572 2.275326 16,325 268 368 2304
2018-11-14 09:05:09 GMT 48.854897 2.287614 16,150 268 368 2304
2018-11-14 09:05:06 GMT 48.855148 2.295579 16,075 268 368 2304
2018-11-14 09:05:00 GMT 48.855560 2.310016 15,825 268 367 2304
2018-11-14 09:04:57 GMT 48.855789 2.318256 15,450 268 358 2240
2018-11-14 09:04:52 GMT 48.856110 2.329752 15,525 268 366 2304
2018-11-14 09:04:48 GMT 48.856480 2.342618 15,350 268 365 2176
2018-11-14 09:04:45 GMT 48.856613 2.346426 15,300 268 365 2176
2018-11-14 09:04:39 GMT 48.857132 2.364518 14,150 268 360 2112
2018-11-14 09:04:36 GMT 48.857346 2.371920 14,950 268 363 2176
2018-11-14 09:04:32 GMT 48.857620 2.381146 14,825 268 362 2112
2018-11-14 09:04:29 GMT 48.857971 2.395020 14,675 268 361 2112
2018-11-14 09:04:26 GMT 48.857971 2.395020 14,625 268 361 2112
2018-11-14 09:04:22 GMT 48.858391 2.409186 14,425 268 357 2240
2018-11-14 09:04:19 GMT 48.858528 2.414246 14,325 268 359 2176
2018-11-14 09:04:16 GMT 48.858715 2.420751 14,250 268 358 2240
2018-11-14 09:04:13 GMT 48.858902 2.428542 14,150 268 357 2240
2018-11-14 09:04:08 GMT 48.859276 2.442290 13,950 268 357 2240
2018-11-14 09:04:05 GMT 48.859451 2.447627 13,925 268 357 2240
2018-11-14 09:04:02 GMT 48.859726 2.457487 13,725 268 355 2112
2018-11-14 09:03:58 GMT 48.860138 2.472417 13,525 268 353 2176
2018-11-14 09:03:55 GMT 48.860577 2.486596 13,400 268 353 2240
2018-11-14 09:03:50 GMT 48.860577 2.486596 13,075 268 351 2176
2018-11-14 09:03:46 GMT 48.860855 2.495487 13,175 268 351 2240
2018-11-14 09:03:43 GMT 48.861099 2.504460 13,125 268 351 2176
2018-11-14 09:03:39 GMT 48.861366 2.512111 12,950 268 350 2112
2018-11-14 09:03:35 GMT 48.861694 2.523053 12,775 268 348 2112
2018-11-14 09:03:31 GMT 48.862068 2.534589 12,550 268 341 2176
2018-11-14 09:03:27 GMT 48.862301 2.541889 12,475 268 344 2432
2018-11-14 09:03:23 GMT 48.862579 2.550563 12,350 268 344 2496
2018-11-14 09:03:17 GMT 48.863068 2.566646 12,125 268 343 2368
2018-11-14 09:03:13 GMT 48.863323 2.575499 11,900 268 341 2176
2018-11-14 09:03:07 GMT 48.863754 2.590097 11,700 268 339 1920
2018-11-14 09:03:04 GMT 48.863976 2.598411 10,950 266 321 1152
2018-11-14 09:02:57 GMT 48.864349 2.614253 11,325 269 333 1856
2018-11-14 09:02:52 GMT 48.864578 2.624535 11,275 269 332 1728
2018-11-14 09:02:45 GMT 48.865002 2.641778 11,100 267 323 1088
2018-11-14 09:02:42 GMT 48.865219 2.648409 11,050 267 322 1088
2018-11-14 09:02:36 GMT 48.865978 2.661655 10,875 262 314 1152
2018-11-14 09:02:30 GMT 48.867554 2.677354 10,800 257 304 1088
2018-11-14 09:02:27 GMT 48.868149 2.681650 10,725 257 304 1088
2018-11-14 09:02:24 GMT 48.869282 2.688976 10,700 255 302 1216
2018-11-14 09:02:21 GMT 48.870163 2.693974 10,650 253 299 1600
2018-11-14 09:02:15 GMT 48.872635 2.705454 10,450 252 285 2752
2018-11-14 09:02:11 GMT 48.874466 2.713834 10,375 252 290 1792
2018-11-14 09:02:08 GMT 48.875801 2.719911 10,300 252 289 1792
2018-11-14 09:02:05 GMT 48.876965 2.725043 10,225 252 287 1984
2018-11-14 09:02:02 GMT 48.878033 2.730030 10,125 252 285 2816
2018-11-14 09:01:59 GMT 48.879501 2.736582 9,950 252 285 2880
2018-11-14 09:01:54 GMT 48.881294 2.744847 9,750 252 285 2944
2018-11-14 09:01:50 GMT 48.882923 2.752364 9,450 253 284 2816
2018-11-14 09:01:47 GMT 48.884041 2.757785 9,400 253 284 2880
2018-11-14 09:01:43 GMT 48.887741 2.775668 9,100 253 284 2944
2018-11-14 09:01:39 GMT 48.888931 2.781231 8,950 253 284 2432
2018-11-14 09:01:36 GMT 48.888931 2.781231 8,850 252 284 2432
2018-11-14 09:01:31 GMT 48.890717 2.788626 8,675 243 280 2304
2018-11-14 09:01:28 GMT 48.892235 2.793924 8,525 241 281 2304
2018-11-14 09:01:25 GMT 48.894466 2.800068 8,425 237 279 2304
2018-11-14 09:01:21 GMT 48.897629 2.806443 8,225 226 275 2112
2018-11-14 09:01:18 GMT 48.900604 2.811232 8,225 226 275 2112
2018-11-14 09:01:15 GMT 48.906876 2.818345 7,950 212 271 2048
2018-11-14 09:01:11 GMT 48.906876 2.818345 7,925 208 270 1984
2018-11-14 09:01:08 GMT 48.910061 2.821029 7,850 205 268 2240
2018-11-14 09:01:05 GMT 48.918274 2.825599 7,550 199 267 2688
2018-11-14 09:01:01 GMT 48.918274 2.825599 7,550 189 266 3328
2018-11-14 09:00:58 GMT 48.922623 2.827008 7,375 187 266 3392
2018-11-14 09:00:54 GMT 48.926239 2.827782 7,200 185 267 3328
2018-11-14 09:00:51 GMT 48.930222 2.828134 6,825 177 268 2816
2018-11-14 09:00:46 GMT 48.937180 2.828064 6,750 177 268 2816
2018-11-14 09:00:43 GMT 48.940273 2.827823 6,625 177 267 2816
2018-11-14 09:00:40 GMT 48.944595 2.827571 6,375 177 266 2816
2018-11-14 09:00:36 GMT 48.949997 2.827148 6,275 177 265 2944
2018-11-14 09:00:33 GMT 48.952564 2.826956 6,175 176 265 3136
2018-11-14 09:00:30 GMT 48.956131 2.826655 5,975 176 265 3072
2018-11-14 09:00:27 GMT 48.961029 2.826233 5,800 175 264 3328
2018-11-14 09:00:23 GMT 48.964809 2.825727 5,500 170 264 2688
2018-11-14 09:00:20 GMT 48.968719 2.825076 5,275 163 264 2752
2018-11-14 09:00:16 GMT 48.976959 2.822500 5,275 167 264 2688
2018-11-14 09:00:13 GMT 48.976959 2.822500 5,075 160 265 2816
2018-11-14 09:00:10 GMT 48.982040 2.819613 3,800 149 266 3200
2018-11-14 09:00:05 GMT 48.986481 2.816233 4,750 145 266 3200
2018-11-14 08:59:58 GMT 48.992752 2.809260 3,800 136 269 2880
2018-11-14 08:59:53 GMT 49.000946 2.793626 4,075 124 270 2368
2018-11-14 08:59:48 GMT 49.000946 2.793626 4,025 107 267 960
2018-11-14 08:59:44 GMT 49.002747 2.788070 3,900 107 267 960
2018-11-14 08:59:41 GMT 49.004192 2.781998 3,825 102 263 832
2018-11-14 08:59:37 GMT 49.005157 2.776020 3,775 98 261 768
2018-11-14 08:59:33 GMT 49.005821 2.767109 3,700 87 252 832
2018-11-14 08:59:30 GMT 49.005798 2.762569 3,675 86 250 768
2018-11-14 08:59:27 GMT 49.005661 2.757709 3,625 86 244 512
2018-11-14 08:59:23 GMT 49.005295 2.749540 3,600 86 236 448
2018-11-14 08:59:20 GMT 49.005112 2.745807 3,575 86 232 576
2018-11-14 08:59:17 GMT 49.004883 2.739751 3,500 86 217 832
2018-11-14 08:59:12 GMT 49.004562 2.732145 3,475 86 217 832
2018-11-14 08:59:08 GMT 49.004284 2.724754 3,400 85 210 896
2018-11-14 08:59:01 GMT 49.003864 2.715864 3,300 85 205 832
2018-11-14 08:58:56 GMT 49.003490 2.709648 3,200 84 198 704
2018-11-14 08:58:52 GMT 49.003120 2.703287 3,175 83 190 704
2018-11-14 08:58:48 GMT 49.002594 2.696017 3,125 84 177 1344
2018-11-14 08:58:44 GMT 49.002319 2.692143 3,050 84 173 1472
2018-11-14 08:58:41 GMT 49.002094 2.688542 3,050 84 173 1472
2018-11-14 08:58:38 GMT 49.001770 2.683411 2,950 84 175 1280
2018-11-14 08:58:35 GMT 49.001678 2.682213 2,900 84 173 1600
2018-11-14 08:58:30 GMT 49.001312 2.676157 2,675 85 171 1984
2018-11-14 08:58:26 GMT 49.000992 2.669959 2,575 85 170 1920
2018-11-14 08:58:23 GMT 49.000809 2.666790 2,450 85 170 1920
2018-11-14 08:58:20 GMT 49.000671 2.663973 2,450 85 170 1920
2018-11-14 08:58:17 GMT 49.000511 2.660209 2,375 86 169 1920
2018-11-14 08:58:14 GMT 49.000328 2.656451 2,200 86 168 1920
2018-11-14 08:58:09 GMT 49.000076 2.650170 2,025 86 167 1920
2018-11-14 08:58:06 GMT 48.999939 2.647846 1,975 86 167 1856
2018-11-14 08:58:02 GMT 48.999756 2.642494 1,875 86 165 2240
2018-11-14 08:57:59 GMT 48.999630 2.639538 1,500 86 165 2240
2018-11-14 08:57:55 GMT 48.999435 2.634043 1,550 86 165 2240
2018-11-14 08:57:48 GMT 48.999119 2.625877 1,275 86 163 2176
2018-11-14 08:57:44 GMT 48.998932 2.621436 1,125 86 162 2176
2018-11-14 08:57:39 GMT 48.998745 2.615613 950 86 162 2176

Making use of Plane Finder data

You are free to use the raw flight data, aircraft information and images provided in this report for your own purposes provided the data is correctly attributed to Plane Finder. We ask that you please credit Plane Finder and link to planefinder.net in close proximity to the content.

Optionally one of the following logos (no smaller then 150x24px) can be used and must link to planefinder.net

Embedding the Plane Finder map

You are welcome to embed the Plane Finder playback map on your website to offer visitors a more interactive experience. We suggest using the following HTML code:

<iframe src="//planefinder.net/data/report/AF1024-F-GKXY-7700-squawk-2018-11-14/map" width="800" height="600" seamless="seamless"></iframe>

Where our data comes from

Plane Finder has a global network of data feeds and antenna radars that receive data broadcast directly from aircraft. The primary technologies used are ADS-B and MLAT. We also show feeds from the FAA and a FLARM glider feed.

Click here to find out more about the Plane Finder network.

How we collect our data